TimeEST,TemperatureF,Dew PointF,Humidity,Sea Level PressureIn,VisibilityMPH,Wind Direction,Wind SpeedMPH,Gust SpeedMPH,PrecipitationIn,Events,Conditions,WindDirDegrees,DateUTC
12:53 AM,9.0,3.9,80,30.19,10.0,NW,12.7,-,N/A,,Clear,320,2012-02-21 05:53:00
1:53 AM,6.1,1.9,83,30.20,10.0,NNW,6.9,-,N/A,,Clear,340,2012-02-21 06:53:00
2:53 AM,7.0,3.0,84,30.21,10.0,NW,6.9,-,N/A,,Clear,320,2012-02-21 07:53:00
3:53 AM,10.9,6.1,81,30.22,10.0,WNW,6.9,-,N/A,,Clear,290,2012-02-21 08:53:00
4:53 AM,8.1,3.9,83,30.22,10.0,North,3.5,-,N/A,,Clear,350,2012-02-21 09:53:00
5:53 AM,8.1,5.0,87,30.22,10.0,WSW,3.5,-,N/A,,Clear,240,2012-02-21 10:53:00
6:53 AM,5.0,1.9,87,30.23,10.0,SW,5.8,-,N/A,,Clear,220,2012-02-21 11:53:00
7:53 AM,6.1,3.0,87,30.23,10.0,SSW,8.1,-,N/A,,Clear,210,2012-02-21 12:53:00
8:53 AM,8.1,3.9,83,30.22,10.0,SSW,5.8,-,N/A,,Clear,200,2012-02-21 13:53:00
9:53 AM,12.0,6.1,77,30.19,10.0,South,5.8,-,N/A,,Clear,180,2012-02-21 14:53:00
10:53 AM,17.1,8.1,68,30.17,10.0,South,3.5,-,N/A,,Clear,180,2012-02-21 15:53:00
11:53 AM,21.0,10.0,63,30.12,10.0,South,6.9,-,N/A,,Clear,180,2012-02-21 16:53:00
12:53 PM,25.0,10.9,55,30.09,10.0,SSE,5.8,-,N/A,,Clear,150,2012-02-21 17:53:00
1:53 PM,28.0,12.0,51,30.07,10.0,South,8.1,-,N/A,,Clear,180,2012-02-21 18:53:00
2:53 PM,28.0,12.9,53,30.04,3.0,South,8.1,-,0.01,,Haze,180,2012-02-21 19:53:00
3:53 PM,28.0,12.0,51,30.01,10.0,SSE,5.8,-,0.04,,Clear,150,2012-02-21 20:53:00
4:53 PM,28.4,10.4,47,29.93,10.0,South,9.2,-,N/A,,Clear,170,2012-02-21 21:53:00
5:53 PM,25.0,10.9,55,29.96,10.0,SE,8.1,-,N/A,,Clear,140,2012-02-21 22:53:00
6:53 PM,21.9,10.9,63,29.94,10.0,SE,8.1,-,N/A,,Clear,130,2012-02-21 23:53:00
7:53 PM,21.0,10.9,65,29.91,10.0,SE,10.4,-,N/A,,Clear,140,2012-02-22 00:53:00
8:53 PM,21.0,10.9,65,29.88,10.0,SE,10.4,-,N/A,,Clear,140,2012-02-22 01:53:00
9:53 PM,19.9,10.0,65,29.84,10.0,SE,8.1,-,N/A,,Clear,140,2012-02-22 02:53:00
10:53 PM,21.0,10.0,63,29.82,10.0,SSE,9.2,-,N/A,,Clear,150,2012-02-22 03:53:00
11:53 PM,19.9,10.0,65,29.80,10.0,SSE,8.1,-,N/A,,Clear,150,2012-02-22 04:53:00